Time;durP1;ratioP1;P1;durP2;ratioP2;P2;SDS_P1;SDS_P2;PMS_P1;PMS_P2;Temp;Humidity;BMP_temperature;BMP_pressure;BME280_temperature;BME280_humidity;BME280_pressure;Samples;Min_cycle;Max_cycle;Signal;HPM_P1;HPM_P2
2023/07/08 00:00:16;;;;;;;6.23;3.47;;;18.40;56.00;;;;;;5053706;28;20771;-58
2023/07/08 00:02:43;;;;;;;4.30;3.63;;;18.30;56.10;;;;;;5053925;28;20464;-58
2023/07/08 00:05:11;;;;;;;3.60;3.30;;;18.30;56.30;;;;;;5053432;28;20444;-58
2023/07/08 00:07:38;;;;;;;3.90;3.50;;;18.30;56.50;;;;;;5053085;28;20483;-58
2023/07/08 00:10:18;;;;;;;3.20;2.90;;;18.30;56.80;;;;;;5053365;28;20448;-58
2023/07/08 00:12:46;;;;;;;4.07;3.67;;;18.20;56.80;;;;;;5053414;28;20471;-56
2023/07/08 00:15:13;;;;;;;4.03;3.63;;;18.20;57.10;;;;;;5053295;28;20447;-57
2023/07/08 00:17:40;;;;;;;4.10;3.70;;;18.10;57.20;;;;;;5053504;28;20476;-57
2023/07/08 00:20:18;;;;;;;3.63;3.33;;;18.10;57.40;;;;;;5053106;28;20816;-57
2023/07/08 00:22:46;;;;;;;5.87;3.90;;;18.00;57.50;;;;;;5052978;28;20471;-57
2023/07/08 00:25:14;;;;;;;4.30;3.90;;;18.00;57.70;;;;;;5053487;28;20479;-57
2023/07/08 00:27:42;;;;;;;4.27;3.87;;;18.00;57.80;;;;;;5055209;28;20795;-57
2023/07/08 00:30:24;;;;;;;4.47;3.83;;;17.90;57.90;;;;;;5057136;28;20818;-57
2023/07/08 00:32:53;;;;;;;4.03;3.13;;;17.90;58.00;;;;;;5057238;28;20467;-58
2023/07/08 00:35:22;;;;;;;3.60;3.23;;;17.80;58.10;;;;;;5057041;28;20457;-57
2023/07/08 00:37:52;;;;;;;4.80;3.73;;;17.80;58.10;;;;;;5057062;28;20498;-57
2023/07/08 00:40:21;;;;;;;4.10;3.53;;;17.80;58.30;;;;;;5057023;28;20547;-59
2023/07/08 00:42:50;;;;;;;4.17;3.67;;;17.80;58.40;;;;;;5056613;28;20483;-59
2023/07/08 00:45:23;;;;;;;6.40;3.67;;;17.70;58.60;;;;;;5056666;28;20446;-58
2023/07/08 00:47:51;;;;;;;4.17;3.50;;;17.70;58.70;;;;;;5056874;28;20918;-58
2023/07/08 00:50:18;;;;;;;4.70;4.07;;;17.70;58.90;;;;;;5056809;28;20451;-57
2023/07/08 00:52:46;;;;;;;4.20;3.80;;;17.60;59.00;;;;;;5056657;28;20476;-57
2023/07/08 00:55:13;;;;;;;4.70;3.60;;;17.60;59.30;;;;;;5056528;28;20444;-56
2023/07/08 00:57:43;;;;;;;5.90;3.87;;;17.50;59.60;;;;;;5056023;28;20483;-56
2023/07/08 01:00:16;;;;;;;4.17;3.77;;;17.50;59.90;;;;;;5056662;28;20433;-57
2023/07/08 01:02:48;;;;;;;4.50;4.10;;;17.40;60.10;;;;;;5056353;28;20491;-56
2023/07/08 01:05:19;;;;;;;4.10;3.70;;;17.40;60.50;;;;;;5056545;28;20428;-58
2023/07/08 01:07:51;;;;;;;4.20;3.80;;;17.30;60.80;;;;;;5056000;28;20475;-58
2023/07/08 01:10:21;;;;;;;5.07;4.10;;;17.30;61.10;;;;;;5056471;28;20482;-58
2023/07/08 01:12:51;;;;;;;3.90;3.27;;;17.20;61.30;;;;;;5055997;28;20980;-57
2023/07/08 01:15:21;;;;;;;3.87;3.57;;;17.20;61.70;;;;;;5056339;28;20447;-58
2023/07/08 01:17:53;;;;;;;3.97;3.60;;;17.20;62.20;;;;;;5056540;28;20491;-57
2023/07/08 01:20:20;;;;;;;3.93;3.60;;;17.10;62.40;;;;;;5056457;28;20486;-59
2023/07/08 01:22:48;;;;;;;8.97;3.63;;;17.10;62.90;;;;;;5056161;28;20837;-56
2023/07/08 01:25:15;;;;;;;5.13;4.40;;;17.10;63.20;;;;;;5056093;28;20968;-57
2023/07/08 01:27:48;;;;;;;4.40;4.00;;;17.00;63.50;;;;;;5056449;28;20451;-57
2023/07/08 01:30:17;;;;;;;4.23;3.83;;;17.00;63.90;;;;;;5056537;28;20433;-57
2023/07/08 01:32:49;;;;;;;6.80;4.80;;;17.00;64.20;;;;;;5056317;28;20547;-58
2023/07/08 01:35:16;;;;;;;4.90;4.17;;;16.90;64.70;;;;;;5056117;28;20429;-58
2023/07/08 01:37:53;;;;;;;6.13;4.77;;;16.90;65.10;;;;;;5056066;28;20491;-57
2023/07/08 01:40:29;;;;;;;4.50;4.10;;;16.80;65.60;;;;;;5055090;28;20424;-57
2023/07/08 01:42:57;;;;;;;5.30;4.80;;;16.80;66.20;;;;;;5055720;28;20475;-58
2023/07/08 01:45:26;;;;;;;4.77;4.37;;;16.80;66.70;;;;;;5055969;28;20443;-57
2023/07/08 01:47:56;;;;;;;4.00;3.60;;;16.70;67.10;;;;;;5055755;28;20444;-57
2023/07/08 01:50:24;;;;;;;5.83;4.67;;;16.70;67.70;;;;;;5055194;28;20455;-56
2023/07/08 01:52:54;;;;;;;4.80;4.20;;;16.70;68.10;;;;;;5055410;28;20468;-57
2023/07/08 01:55:24;;;;;;;4.90;4.50;;;16.70;68.50;;;;;;5055498;28;20428;-58
2023/07/08 01:57:52;;;;;;;5.53;4.10;;;16.70;69.00;;;;;;5055067;28;20997;-56
2023/07/08 02:00:19;;;;;;;4.33;3.97;;;16.60;69.20;;;;;;5055536;28;20451;-57
2023/07/08 02:02:46;;;;;;;7.30;4.70;;;16.60;69.80;;;;;;5055389;28;20460;-57
2023/07/08 02:05:13;;;;;;;6.10;5.00;;;16.60;70.20;;;;;;5055558;28;20826;-57
2023/07/08 02:07:39;;;;;;;4.10;3.70;;;16.60;70.50;;;;;;5055254;28;20939;-58
2023/07/08 02:10:09;;;;;;;5.43;4.37;;;16.60;70.90;;;;;;5055152;28;20448;-57
2023/07/08 02:12:35;;;;;;;4.47;4.13;;;16.50;71.20;;;;;;5054962;28;21011;-57
2023/07/08 02:15:03;;;;;;;5.00;4.50;;;16.50;71.80;;;;;;5055521;28;20448;-58
2023/07/08 02:17:30;;;;;;;4.27;3.87;;;16.50;72.20;;;;;;5056030;28;20487;-57
2023/07/08 02:19:57;;;;;;;4.37;3.97;;;16.50;72.80;;;;;;5055352;28;20786;-57
2023/07/08 02:22:24;;;;;;;5.13;4.47;;;16.50;73.40;;;;;;5055077;28;20475;-57
2023/07/08 02:24:50;;;;;;;5.33;4.37;;;16.40;74.00;;;;;;5054530;28;20938;-57
2023/07/08 02:27:18;;;;;;;6.60;4.20;;;16.40;74.90;;;;;;5054978;28;20444;-57
2023/07/08 02:29:45;;;;;;;7.67;5.07;;;16.30;75.50;;;;;;5054967;28;20815;-58
2023/07/08 02:32:12;;;;;;;6.40;4.50;;;16.30;76.30;;;;;;5055071;28;20468;-58
2023/07/08 02:34:39;;;;;;;4.90;4.10;;;16.30;76.90;;;;;;5054893;28;20989;-57
2023/07/08 02:37:06;;;;;;;4.73;4.27;;;16.20;77.70;;;;;;5054873;28;20480;-56
2023/07/08 02:39:32;;;;;;;5.27;4.77;;;16.20;78.50;;;;;;5054494;28;20448;-57
2023/07/08 02:42:00;;;;;;;5.27;4.37;;;16.20;79.50;;;;;;5054103;28;20487;-57
2023/07/08 02:44:29;;;;;;;5.33;3.87;;;16.20;79.90;;;;;;5054564;28;20448;-56
2023/07/08 02:46:55;;;;;;;4.93;3.90;;;16.10;80.50;;;;;;5054353;28;20445;-57
2023/07/08 02:49:22;;;;;;;4.37;3.93;;;16.10;81.30;;;;;;5054404;28;20444;-56
2023/07/08 02:51:49;;;;;;;6.40;4.70;;;16.10;82.10;;;;;;5054028;28;20460;-58
2023/07/08 02:54:16;;;;;;;5.37;4.70;;;16.10;82.80;;;;;;5054359;28;20444;-57
2023/07/08 02:56:42;;;;;;;5.23;4.50;;;16.10;83.40;;;;;;5055114;28;20456;-57
2023/07/08 02:59:09;;;;;;;4.70;4.30;;;16.10;83.60;;;;;;5054300;28;20444;-57
2023/07/08 03:01:41;;;;;;;5.40;4.90;;;16.10;84.00;;;;;;5054797;28;20468;-58
2023/07/08 03:04:12;;;;;;;5.63;4.30;;;16.10;84.80;;;;;;5054273;28;20438;-59
2023/07/08 03:06:39;;;;;;;6.00;4.43;;;16.10;85.30;;;;;;5054184;28;20838;-57
2023/07/08 03:09:06;;;;;;;6.93;5.33;;;16.10;85.50;;;;;;5054691;28;20471;-59
2023/07/08 03:11:33;;;;;;;5.60;4.90;;;16.00;85.80;;;;;;5053831;28;20468;-58
2023/07/08 03:13:59;;;;;;;6.17;5.00;;;16.00;86.30;;;;;;5054115;28;20436;-58
2023/07/08 03:16:26;;;;;;;5.90;4.67;;;16.00;87.10;;;;;;5054308;28;20444;-58
2023/07/08 03:18:54;;;;;;;5.87;4.93;;;16.00;87.70;;;;;;5054375;28;20480;-57
2023/07/08 03:21:21;;;;;;;7.60;5.40;;;16.00;88.10;;;;;;5054633;28;20468;-57
2023/07/08 03:23:49;;;;;;;5.20;4.70;;;16.00;88.40;;;;;;5054113;28;20448;-58
2023/07/08 03:26:17;;;;;;;5.87;4.70;;;16.00;88.80;;;;;;5055362;28;20474;-58
2023/07/08 03:28:45;;;;;;;8.40;5.37;;;16.00;89.30;;;;;;5054323;28;20467;-57
2023/07/08 03:31:12;;;;;;;10.30;4.77;;;16.00;90.00;;;;;;5053583;28;20463;-57
2023/07/08 03:33:39;;;;;;;7.07;5.27;;;16.00;90.20;;;;;;5053580;28;20451;-56
2023/07/08 03:36:22;;;;;;;5.73;5.23;;;16.00;90.30;;;;;;5053771;28;20448;-56
2023/07/08 03:38:49;;;;;;;6.07;5.07;;;16.00;90.30;;;;;;5053395;28;20521;-56
2023/07/08 03:41:16;;;;;;;5.00;4.60;;;16.00;90.40;;;;;;5053417;28;20480;-57
2023/07/08 03:43:42;;;;;;;6.60;6.00;;;16.10;90.60;;;;;;5053401;28;20447;-57
2023/07/08 03:46:11;;;;;;;5.60;5.00;;;16.10;90.60;;;;;;5054974;28;20448;-56
2023/07/08 03:48:38;;;;;;;5.80;4.60;;;16.10;90.70;;;;;;5054152;28;20436;-57
2023/07/08 03:51:05;;;;;;;5.87;5.37;;;16.20;90.80;;;;;;5052893;28;20501;-56
2023/07/08 03:53:33;;;;;;;5.50;5.00;;;16.20;90.70;;;;;;5053198;28;20440;-58
2023/07/08 03:55:59;;;;;;;5.57;5.07;;;16.20;90.70;;;;;;5053369;28;20455;-58
2023/07/08 03:58:26;;;;;;;6.60;5.40;;;16.20;90.80;;;;;;5052996;28;20480;-56
2023/07/08 04:00:53;;;;;;;5.80;5.30;;;16.40;91.00;;;;;;5053199;28;20440;-56
2023/07/08 04:03:20;;;;;;;5.77;5.20;;;16.80;90.90;;;;;;5052716;28;20444;-57
2023/07/08 04:05:46;;;;;;;5.47;4.87;;;17.30;89.80;;;;;;5052922;28;20452;-57
2023/07/08 04:08:13;;;;;;;5.10;4.60;;;17.90;86.40;;;;;;5053029;28;20444;-59
2023/07/08 04:11:55;;;;;;;5.33;4.93;;;18.70;79.60;;;;;;5090746;28;20561;-57
2023/07/08 04:14:22;;;;;;;5.60;5.03;;;19.20;76.60;;;;;;5090794;28;20446;-58
2023/07/08 04:16:53;;;;;;;5.33;4.83;;;19.60;73.60;;;;;;5090210;28;20449;-58
2023/07/08 04:19:23;;;;;;;6.97;5.20;;;20.00;70.80;;;;;;5090440;28;20423;-57
2023/07/08 04:21:50;;;;;;;5.43;4.93;;;20.30;69.00;;;;;;5090341;28;20513;-58
2023/07/08 04:24:18;;;;;;;5.70;4.87;;;20.50;67.10;;;;;;5090277;28;20621;-58
2023/07/08 04:26:47;;;;;;;5.77;5.27;;;20.80;65.50;;;;;;5090255;28;20451;-57
2023/07/08 04:29:17;;;;;;;5.10;4.60;;;21.00;64.00;;;;;;5090323;28;20475;-58
2023/07/08 04:31:44;;;;;;;7.23;5.27;;;21.20;62.50;;;;;;5090110;28;20493;-59
2023/07/08 04:34:11;;;;;;;6.30;4.60;;;21.40;61.50;;;;;;5089760;28;20830;-57
2023/07/08 04:36:38;;;;;;;5.87;5.13;;;21.60;60.60;;;;;;5089856;28;20442;-58
2023/07/08 04:39:07;;;;;;;7.30;4.77;;;21.70;59.80;;;;;;5090052;28;20466;-58
2023/07/08 04:41:33;;;;;;;4.83;4.43;;;21.90;59.10;;;;;;5089740;28;20996;-57
2023/07/08 04:44:02;;;;;;;5.43;4.93;;;22.00;58.40;;;;;;5089995;28;20451;-57
2023/07/08 04:46:37;;;;;;;5.50;5.00;;;22.10;57.80;;;;;;5089670;28;20538;-58
2023/07/08 04:49:04;;;;;;;5.80;5.00;;;22.20;57.30;;;;;;5090489;28;20433;-58
2023/07/08 04:51:31;;;;;;;5.47;4.90;;;22.30;57.00;;;;;;5089755;28;20492;-59
2023/07/08 04:53:58;;;;;;;5.73;5.07;;;22.40;56.70;;;;;;5089679;28;20822;-59
2023/07/08 04:56:26;;;;;;;5.67;5.27;;;22.50;56.20;;;;;;5089789;28;20454;-58
2023/07/08 04:58:53;;;;;;;5.50;5.07;;;22.50;55.80;;;;;;5089743;28;20442;-58
2023/07/08 05:01:20;;;;;;;6.10;5.03;;;22.50;55.40;;;;;;5088907;28;20463;-58
2023/07/08 05:03:48;;;;;;;6.00;5.33;;;22.60;55.30;;;;;;5089606;28;20446;-58
2023/07/08 05:06:14;;;;;;;5.20;4.73;;;22.60;55.00;;;;;;5089174;28;20962;-57
2023/07/08 05:08:41;;;;;;;5.57;5.07;;;22.70;54.80;;;;;;5089591;28;20450;-58
2023/07/08 05:11:08;;;;;;;5.60;5.10;;;22.80;54.40;;;;;;5089615;28;21025;-58
2023/07/08 05:13:35;;;;;;;9.73;5.53;;;22.90;54.10;;;;;;5090171;28;20456;-58
2023/07/08 05:16:01;;;;;;;5.70;4.50;;;23.10;53.80;;;;;;5089872;28;20937;-58
2023/07/08 05:18:28;;;;;;;5.27;4.77;;;23.20;53.40;;;;;;5090112;28;20440;-58
2023/07/08 05:20:57;;;;;;;4.97;4.57;;;23.30;53.10;;;;;;5090647;28;20441;-58
2023/07/08 05:23:24;;;;;;;5.17;4.70;;;23.30;52.90;;;;;;5075639;28;20443;-58
2023/07/08 05:25:51;;;;;;;5.57;5.00;;;23.40;52.50;;;;;;5076368;28;20454;-58
2023/07/08 05:28:17;;;;;;;5.50;5.00;;;23.50;52.20;;;;;;5075720;28;20444;-57
2023/07/08 05:30:44;;;;;;;5.23;4.80;;;23.60;52.10;;;;;;5075743;28;20488;-58
2023/07/08 05:33:11;;;;;;;5.20;4.70;;;23.60;51.80;;;;;;5075557;28;20443;-57
2023/07/08 05:35:38;;;;;;;6.20;5.30;;;23.50;51.60;;;;;;5075665;28;20535;-58
2023/07/08 05:38:06;;;;;;;5.50;5.00;;;23.40;51.70;;;;;;5075569;28;20449;-57
2023/07/08 05:40:32;;;;;;;7.73;5.37;;;23.50;52.30;;;;;;5075373;28;20440;-58
2023/07/08 05:42:59;;;;;;;6.50;5.10;;;23.50;51.40;;;;;;5075890;28;20474;-57
2023/07/08 05:45:26;;;;;;;5.47;4.97;;;23.50;51.50;;;;;;5075340;28;20444;-57
2023/07/08 05:47:52;;;;;;;5.20;4.70;;;23.40;51.50;;;;;;5075294;28;20453;-57
2023/07/08 05:50:19;;;;;;;5.77;5.27;;;23.50;51.50;;;;;;5075002;28;20826;-57
2023/07/08 05:52:46;;;;;;;6.50;5.60;;;23.60;51.30;;;;;;5074739;28;20463;-57
2023/07/08 05:55:14;;;;;;;5.43;5.03;;;23.70;51.20;;;;;;5074987;28;20458;-58
2023/07/08 05:57:41;;;;;;;6.60;5.50;;;23.60;50.80;;;;;;5074948;28;20444;-58
2023/07/08 06:00:09;;;;;;;4.70;4.40;;;23.50;50.80;;;;;;5074983;28;20447;-58
2023/07/08 06:02:35;;;;;;;5.30;4.80;;;23.40;50.90;;;;;;5074572;28;20485;-58
2023/07/08 06:05:02;;;;;;;6.77;6.00;;;23.30;51.10;;;;;;5074926;28;20443;-58
2023/07/08 06:07:29;;;;;;;5.60;5.10;;;23.20;51.20;;;;;;5075402;28;20448;-58
2023/07/08 06:09:57;;;;;;;6.27;5.60;;;23.20;51.30;;;;;;5074700;28;20477;-57
2023/07/08 06:12:25;;;;;;;8.37;5.07;;;23.20;51.20;;;;;;5074323;28;20857;-56
2023/07/08 06:14:52;;;;;;;5.30;4.90;;;23.10;51.30;;;;;;5074732;28;20477;-59
2023/07/08 06:17:18;;;;;;;7.10;5.23;;;23.00;51.40;;;;;;5074310;28;20990;-58
2023/07/08 06:19:45;;;;;;;5.60;5.10;;;22.90;51.70;;;;;;5074539;28;20590;-59
2023/07/08 06:22:12;;;;;;;6.43;5.60;;;22.80;52.00;;;;;;5074409;28;20477;-58
2023/07/08 06:24:39;;;;;;;5.97;5.13;;;22.70;52.00;;;;;;5074626;28;20447;-58
2023/07/08 06:27:07;;;;;;;5.83;5.30;;;22.60;52.20;;;;;;5074333;28;20444;-57
2023/07/08 06:29:36;;;;;;;5.50;5.00;;;22.60;52.40;;;;;;5074126;28;20450;-59
2023/07/08 06:32:03;;;;;;;5.50;5.00;;;22.60;52.50;;;;;;5073975;28;20483;-57
2023/07/08 06:34:30;;;;;;;6.10;5.53;;;22.60;53.20;;;;;;5073151;28;20476;-59
2023/07/08 06:36:56;;;;;;;6.10;5.50;;;22.70;52.60;;;;;;5074354;28;20455;-57
2023/07/08 06:39:23;;;;;;;6.80;6.00;;;22.70;52.40;;;;;;5074438;28;20450;-58
2023/07/08 06:41:50;;;;;;;6.00;5.50;;;22.70;52.50;;;;;;5074244;28;20477;-57
2023/07/08 06:44:17;;;;;;;5.73;5.27;;;22.70;52.50;;;;;;5073904;28;20473;-59
2023/07/08 06:46:45;;;;;;;5.93;5.43;;;22.70;52.60;;;;;;5074070;28;20524;-58
2023/07/08 06:49:12;;;;;;;6.27;5.63;;;22.70;52.70;;;;;;5073964;28;20942;-59
2023/07/08 06:51:40;;;;;;;8.07;5.63;;;22.70;52.80;;;;;;5074056;28;20490;-58
2023/07/08 06:54:11;;;;;;;6.30;5.40;;;22.70;52.80;;;;;;5074249;28;20478;-58
2023/07/08 06:56:38;;;;;;;5.93;5.40;;;22.80;52.90;;;;;;5074170;28;20571;-58
2023/07/08 06:59:05;;;;;;;8.80;6.00;;;22.80;52.80;;;;;;5073682;28;20925;-58
2023/07/08 07:01:31;;;;;;;7.47;5.50;;;22.90;52.90;;;;;;5073939;28;20489;-59
2023/07/08 07:04:00;;;;;;;7.30;6.60;;;22.90;52.90;;;;;;5073242;28;20974;-57
2023/07/08 07:06:27;;;;;;;9.77;5.53;;;22.90;52.90;;;;;;5073288;28;20933;-56
2023/07/08 07:08:53;;;;;;;6.17;5.63;;;23.00;52.90;;;;;;5073491;28;20448;-56
2023/07/08 07:11:20;;;;;;;5.53;5.07;;;23.10;52.80;;;;;;5072830;28;20491;-57
2023/07/08 07:13:47;;;;;;;5.13;4.73;;;23.20;52.70;;;;;;5073186;28;20486;-57
2023/07/08 07:16:14;;;;;;;7.07;5.70;;;23.30;52.50;;;;;;5073420;28;20458;-57
2023/07/08 07:18:41;;;;;;;6.70;5.87;;;23.40;52.30;;;;;;5073663;28;20444;-58
2023/07/08 07:21:09;;;;;;;7.87;5.60;;;23.50;52.10;;;;;;5073234;28;20459;-58
2023/07/08 07:23:36;;;;;;;8.37;6.40;;;23.70;52.00;;;;;;5073162;28;20956;-58
2023/07/08 07:26:04;;;;;;;6.07;5.50;;;23.70;51.80;;;;;;5073196;28;20443;-58
2023/07/08 07:28:31;;;;;;;5.23;4.73;;;23.80;51.70;;;;;;5073205;28;20455;-58
2023/07/08 07:30:59;;;;;;;7.27;5.90;;;23.90;51.60;;;;;;5073152;28;20474;-57
2023/07/08 07:33:26;;;;;;;6.30;5.00;;;24.00;51.70;;;;;;5074112;28;20877;-58
2023/07/08 07:35:53;;;;;;;5.90;5.17;;;24.10;51.70;;;;;;5073196;28;20559;-57
2023/07/08 07:38:21;;;;;;;5.47;4.97;;;24.20;51.50;;;;;;5073481;28;20439;-57
2023/07/08 07:40:48;;;;;;;5.90;5.30;;;24.30;51.20;;;;;;5072982;28;20960;-55
2023/07/08 07:43:14;;;;;;;5.20;4.70;;;24.40;50.90;;;;;;5073227;28;20454;-58
2023/07/08 07:45:41;;;;;;;6.40;5.60;;;24.50;50.60;;;;;;5073082;28;20455;-57
2023/07/08 07:48:08;;;;;;;5.53;4.97;;;24.60;50.50;;;;;;5073379;28;20444;-59
2023/07/08 07:50:35;;;;;;;6.83;5.40;;;24.70;50.50;;;;;;5072972;28;20447;-59
2023/07/08 07:53:01;;;;;;;6.77;5.07;;;24.80;50.20;;;;;;5072982;28;20468;-58
2023/07/08 07:55:29;;;;;;;6.77;5.20;;;24.90;50.00;;;;;;5073623;28;20440;-57
2023/07/08 07:57:56;;;;;;;7.80;4.90;;;25.00;49.90;;;;;;5075072;28;20444;-57
2023/07/08 08:00:23;;;;;;;6.80;4.87;;;25.00;49.70;;;;;;5075042;28;20461;-58
2023/07/08 08:02:50;;;;;;;5.23;4.73;;;25.10;49.60;;;;;;5074829;28;20470;-58
2023/07/08 08:05:16;;;;;;;8.13;5.73;;;25.10;49.50;;;;;;5074767;28;20504;-59
2023/07/08 08:07:44;;;;;;;8.00;5.60;;;25.20;49.40;;;;;;5074408;28;20943;-58
2023/07/08 08:10:11;;;;;;;5.53;4.80;;;25.30;49.30;;;;;;5072586;28;20468;-58
2023/07/08 08:12:39;;;;;;;6.13;5.43;;;25.40;49.10;;;;;;5072333;28;20488;-58
2023/07/08 08:15:07;;;;;;;5.33;4.70;;;25.50;49.00;;;;;;5072773;28;20446;-59
2023/07/08 08:17:34;;;;;;;6.57;4.70;;;25.70;48.80;;;;;;5072791;28;20451;-58
2023/07/08 08:20:00;;;;;;;5.13;4.60;;;25.80;48.60;;;;;;5072812;28;20453;-58
2023/07/08 08:22:27;;;;;;;5.50;5.00;;;25.90;48.30;;;;;;5072912;28;20472;-58
2023/07/08 08:24:54;;;;;;;5.57;4.97;;;26.10;48.00;;;;;;5072838;28;20446;-57
2023/07/08 08:27:21;;;;;;;6.60;4.90;;;26.20;47.70;;;;;;5072747;28;20443;-59
2023/07/08 08:29:49;;;;;;;5.57;5.00;;;26.20;47.50;;;;;;5072819;28;20443;-58
2023/07/08 08:32:16;;;;;;;5.03;4.53;;;26.30;47.60;;;;;;5073181;28;20479;-56
2023/07/08 08:34:44;;;;;;;4.80;4.30;;;26.50;47.50;;;;;;5072717;28;20449;-59
2023/07/08 08:37:11;;;;;;;5.80;5.30;;;26.70;47.30;;;;;;5072551;28;20447;-58
2023/07/08 08:39:38;;;;;;;6.77;5.13;;;26.80;47.10;;;;;;5072724;28;20458;-57
2023/07/08 08:42:11;;;;;;;5.40;4.80;;;26.80;47.10;;;;;;5072357;28;20461;-58
2023/07/08 08:44:38;;;;;;;5.40;4.93;;;26.90;47.30;;;;;;5073876;28;20433;-58
2023/07/08 08:47:18;;;;;;;6.63;5.93;;;27.00;47.40;;;;;;5073461;28;20453;-59
2023/07/08 08:49:54;;;;;;;4.73;4.27;;;27.00;47.30;;;;;;5073018;28;20453;-59
2023/07/08 08:52:21;;;;;;;5.77;5.10;;;27.10;47.20;;;;;;5072098;28;20979;-57
2023/07/08 08:54:50;;;;;;;7.27;4.73;;;27.20;47.10;;;;;;5072067;28;20441;-57
2023/07/08 08:57:32;;;;;;;9.90;5.60;;;27.30;47.00;;;;;;5073638;28;20486;-58
2023/07/08 09:00:00;;;;;;;5.20;4.63;;;27.40;46.90;;;;;;5076264;28;20441;-58
2023/07/08 09:02:38;;;;;;;7.17;4.73;;;27.50;46.70;;;;;;5075817;28;20461;-59
2023/07/08 09:05:08;;;;;;;4.53;4.13;;;27.60;46.70;;;;;;5076478;28;20435;-58
2023/07/08 09:07:42;;;;;;;5.73;4.93;;;27.70;46.40;;;;;;5075976;28;20447;-59
2023/07/08 09:10:15;;;;;;;4.57;4.10;;;27.90;46.10;;;;;;5075839;28;20543;-59
2023/07/08 09:12:41;;;;;;;4.63;4.23;;;28.00;45.80;;;;;;5075865;28;20496;-58
2023/07/08 09:15:13;;;;;;;4.70;4.30;;;28.00;45.60;;;;;;5076521;28;20455;-60
2023/07/08 09:17:42;;;;;;;4.97;4.00;;;28.10;45.50;;;;;;5075801;28;20468;-59
2023/07/08 09:20:20;;;;;;;6.10;4.60;;;28.20;45.50;;;;;;5076175;28;20454;-58
2023/07/08 09:22:50;;;;;;;4.40;4.00;;;28.30;45.00;;;;;;5075921;28;20471;-57
2023/07/08 09:25:25;;;;;;;5.93;4.53;;;28.50;44.60;;;;;;5076736;28;20523;-57
2023/07/08 09:27:52;;;;;;;4.97;4.10;;;28.70;43.90;;;;;;5077173;28;20420;-59
2023/07/08 09:30:21;;;;;;;6.60;4.43;;;28.80;43.40;;;;;;5076982;28;20450;-58
2023/07/08 09:32:50;;;;;;;4.40;4.00;;;28.90;43.20;;;;;;5076485;28;20486;-58
2023/07/08 09:35:20;;;;;;;4.93;4.43;;;28.90;43.00;;;;;;5076577;28;20449;-59
2023/07/08 09:37:48;;;;;;;6.87;5.10;;;28.90;42.60;;;;;;5076677;28;20430;-57
2023/07/08 09:40:19;;;;;;;5.30;3.87;;;29.00;42.40;;;;;;5076586;28;20437;-59
2023/07/08 09:42:49;;;;;;;9.07;5.20;;;29.10;42.20;;;;;;5076669;28;20454;-59
2023/07/08 09:45:20;;;;;;;5.60;4.00;;;29.20;42.20;;;;;;5076489;28;20918;-59
2023/07/08 09:47:52;;;;;;;5.17;3.80;;;29.40;41.90;;;;;;5077385;28;20437;-58
2023/07/08 09:50:22;;;;;;;5.00;4.10;;;29.50;41.70;;;;;;5076798;28;20431;-58
2023/07/08 09:52:49;;;;;;;4.73;4.23;;;29.60;41.70;;;;;;5076915;28;20573;-59
2023/07/08 09:55:16;;;;;;;4.07;3.70;;;29.60;41.50;;;;;;5076350;28;20445;-58
2023/07/08 09:57:44;;;;;;;4.50;4.10;;;29.70;41.50;;;;;;5075791;28;20444;-59
2023/07/08 10:00:16;;;;;;;4.77;4.10;;;29.80;41.40;;;;;;5075223;28;20819;-59
2023/07/08 10:02:46;;;;;;;5.37;4.40;;;29.90;41.30;;;;;;5075431;28;20465;-57
2023/07/08 10:05:20;;;;;;;5.23;4.40;;;29.90;41.10;;;;;;5075618;28;20449;-58
2023/07/08 10:07:49;;;;;;;4.70;4.20;;;29.90;40.90;;;;;;5075294;28;20437;-57
2023/07/08 10:10:19;;;;;;;7.23;4.60;;;30.00;40.80;;;;;;5075090;28;20466;-59
2023/07/08 10:12:57;;;;;;;5.00;4.50;;;30.00;40.60;;;;;;5075049;28;20484;-58
2023/07/08 10:15:29;;;;;;;4.00;3.70;;;30.20;40.30;;;;;;5075599;28;20438;-58
2023/07/08 10:17:56;;;;;;;4.47;4.00;;;30.30;39.80;;;;;;5075841;28;20415;-58
2023/07/08 10:20:29;;;;;;;5.17;4.40;;;30.50;39.50;;;;;;5074962;28;20451;-57
2023/07/08 10:23:05;;;;;;;4.50;4.10;;;30.70;39.40;;;;;;5075131;28;20511;-58
2023/07/08 10:25:44;;;;;;;5.23;4.73;;;30.90;39.10;;;;;;5075367;28;20991;-58
2023/07/08 10:28:25;;;;;;;5.20;4.60;;;31.00;38.60;;;;;;5075829;28;20925;-60
2023/07/08 10:31:11;;;;;;;8.20;4.00;;;31.20;38.50;;;;;;5075958;28;20436;-58
2023/07/08 10:33:54;;;;;;;4.70;4.30;;;31.20;38.30;;;;;;5075458;28;20491;-58
2023/07/08 10:36:31;;;;;;;4.90;4.37;;;31.30;38.00;;;;;;5075806;28;20451;-57
2023/07/08 10:39:18;;;;;;;5.20;4.80;;;31.30;37.70;;;;;;5075638;28;20521;-58
2023/07/08 10:41:55;;;;;;;5.50;4.50;;;31.40;37.60;;;;;;5075995;28;20466;-58
2023/07/08 10:44:27;;;;;;;5.40;4.53;;;31.40;37.40;;;;;;5075785;28;20441;-58
2023/07/08 10:47:07;;;;;;;6.00;4.80;;;31.50;37.40;;;;;;5076031;28;20435;-58
2023/07/08 10:49:48;;;;;;;4.67;4.27;;;31.60;37.30;;;;;;5075765;28;20434;-58
2023/07/08 10:52:31;;;;;;;4.70;4.20;;;31.70;37.20;;;;;;5074590;28;20529;-58
2023/07/08 10:55:14;;;;;;;4.70;3.70;;;31.80;37.00;;;;;;5074742;28;20429;-58
2023/07/08 10:58:02;;;;;;;6.33;4.90;;;31.80;36.50;;;;;;5074408;28;20430;-58
2023/07/08 11:00:39;;;;;;;5.03;4.53;;;31.90;36.10;;;;;;5071654;28;20455;-58
2023/07/08 11:03:35;;;;;;;5.13;4.43;;;31.90;35.60;;;;;;5073863;28;20905;-58
2023/07/08 11:06:07;;;;;;;5.20;3.60;;;31.90;35.30;;;;;;5074515;28;20431;-58
2023/07/08 11:08:41;;;;;;;4.93;4.43;;;32.00;35.00;;;;;;5073688;28;20982;-59
2023/07/08 11:11:15;;;;;;;4.70;4.20;;;32.00;34.60;;;;;;5073559;28;20475;-59
2023/07/08 11:13:49;;;;;;;8.07;4.60;;;32.10;34.70;;;;;;5073526;28;20469;-58
2023/07/08 11:16:22;;;;;;;5.60;5.10;;;32.10;34.60;;;;;;5074474;28;20433;-58
2023/07/08 11:18:54;;;;;;;5.73;4.80;;;32.20;34.60;;;;;;5073618;28;20441;-59
2023/07/08 11:21:24;;;;;;;10.13;5.70;;;32.20;34.30;;;;;;5073024;28;20523;-59
2023/07/08 11:23:59;;;;;;;5.60;4.50;;;32.20;33.80;;;;;;5073741;28;20875;-59
2023/07/08 11:26:30;;;;;;;4.87;4.47;;;32.30;33.60;;;;;;5073448;28;20435;-59
2023/07/08 11:28:59;;;;;;;6.07;4.60;;;32.30;33.10;;;;;;5074160;28;20438;-58
2023/07/08 11:31:33;;;;;;;5.00;4.60;;;32.40;32.90;;;;;;5073415;28;20460;-58
2023/07/08 11:34:02;;;;;;;5.63;4.50;;;32.40;32.70;;;;;;5072872;28;20996;-59
2023/07/08 11:36:31;;;;;;;4.07;3.77;;;32.60;32.40;;;;;;5073334;28;20446;-60
2023/07/08 11:39:00;;;;;;;4.50;4.10;;;32.60;32.00;;;;;;5073071;28;20451;-59
2023/07/08 11:41:31;;;;;;;4.70;4.30;;;32.60;31.90;;;;;;5073370;28;20469;-58
2023/07/08 11:44:00;;;;;;;6.40;5.80;;;32.60;31.80;;;;;;5073200;28;20430;-59
2023/07/08 11:46:31;;;;;;;5.37;4.87;;;32.60;31.60;;;;;;5073179;28;20461;-58
2023/07/08 11:49:03;;;;;;;6.10;5.10;;;32.60;31.60;;;;;;5073275;28;20492;-59
2023/07/08 11:55:03;;;;;;;4.40;3.77;;;32.80;31.90;;;;;;5073243;28;20418;-59
2023/07/08 11:57:37;;;;;;;6.60;4.03;;;32.90;31.70;;;;;;5073081;28;20428;-57
2023/07/08 12:00:20;;;;;;;6.53;5.17;;;32.90;31.40;;;;;;5073087;28;20433;-57
2023/07/08 12:02:53;;;;;;;5.40;4.63;;;33.20;31.30;;;;;;5073328;28;20459;-59
2023/07/08 12:05:31;;;;;;;4.80;4.30;;;33.80;30.60;;;;;;5075169;28;20434;-57
2023/07/08 12:08:00;;;;;;;6.23;4.60;;;34.40;29.90;;;;;;5075453;28;20455;-59
2023/07/08 12:10:33;;;;;;;8.87;4.77;;;35.00;29.40;;;;;;5073601;28;20455;-58
2023/07/08 12:13:00;;;;;;;4.90;4.40;;;35.50;28.70;;;;;;5072649;28;20491;-57
2023/07/08 12:15:29;;;;;;;8.13;4.60;;;35.90;28.20;;;;;;5073660;28;20439;-58
2023/07/08 12:18:00;;;;;;;5.00;4.53;;;36.30;28.00;;;;;;5072473;28;20925;-58
2023/07/08 12:20:29;;;;;;;5.43;4.93;;;36.50;27.40;;;;;;5073111;28;20434;-58
2023/07/08 12:22:55;;;;;;;4.43;4.03;;;36.80;27.40;;;;;;5072698;28;20466;-56
2023/07/08 12:25:25;;;;;;;5.03;4.53;;;36.90;26.80;;;;;;5072948;28;20446;-58
2023/07/08 12:27:53;;;;;;;6.37;4.70;;;36.90;27.20;;;;;;5072863;28;20443;-58
2023/07/08 12:30:20;;;;;;;5.07;4.53;;;37.00;26.40;;;;;;5072500;28;20482;-57
2023/07/08 12:32:47;;;;;;;5.17;4.60;;;36.90;26.30;;;;;;5074980;28;20487;-59
2023/07/08 12:35:23;;;;;;;4.93;4.47;;;36.90;26.00;;;;;;5076387;28;20848;-57
2023/07/08 12:37:52;;;;;;;5.30;4.80;;;36.80;25.80;;;;;;5076844;28;20443;-57
2023/07/08 12:40:21;;;;;;;5.53;4.87;;;36.80;25.70;;;;;;5076803;28;20474;-57
2023/07/08 12:42:48;;;;;;;5.80;5.20;;;36.80;25.70;;;;;;5076341;28;21010;-59
2023/07/08 12:45:20;;;;;;;6.03;4.77;;;36.50;26.00;;;;;;5077603;28;20462;-59
2023/07/08 12:47:48;;;;;;;5.43;4.93;;;36.20;25.90;;;;;;5076689;28;20991;-59
2023/07/08 12:50:15;;;;;;;5.17;4.67;;;35.80;26.10;;;;;;5076535;28;20475;-58
2023/07/08 12:52:44;;;;;;;6.73;5.33;;;35.40;26.50;;;;;;5076097;28;20997;-58
2023/07/08 12:55:12;;;;;;;4.93;4.43;;;35.00;26.60;;;;;;5076720;28;20875;-58
2023/07/08 12:57:44;;;;;;;5.03;4.57;;;34.60;27.00;;;;;;5076127;28;20454;-58
2023/07/08 13:00:17;;;;;;;7.83;5.03;;;34.30;27.40;;;;;;5076435;28;20446;-58
2023/07/08 13:02:47;;;;;;;5.20;4.70;;;34.10;27.50;;;;;;5076302;28;20570;-58